createdAt,value
2023-05-15T00:01:51.789Z,21
2023-05-15T00:04:22.572Z,24
2023-05-15T00:06:53.643Z,24
2023-05-15T00:09:24.125Z,23
2023-05-15T00:11:54.982Z,20
2023-05-15T00:14:26.058Z,21
2023-05-15T00:16:57.007Z,25
2023-05-15T00:19:28.319Z,24
2023-05-15T00:21:59.061Z,24
2023-05-15T00:24:29.911Z,24
2023-05-15T00:27:01.181Z,24
2023-05-15T00:29:33.113Z,26
2023-05-15T00:32:03.846Z,26
2023-05-15T00:34:34.652Z,20
2023-05-15T00:37:05.698Z,21
2023-05-15T00:39:36.918Z,24
2023-05-15T00:42:07.392Z,24
2023-05-15T00:44:38.269Z,21
2023-05-15T00:47:09.237Z,20
2023-05-15T00:49:40.510Z,21
2023-05-15T00:52:11.836Z,20
2023-05-15T00:54:42.228Z,25
2023-05-15T00:57:13.051Z,20
2023-05-15T00:59:43.606Z,22
2023-05-15T01:02:14.644Z,20
2023-05-15T01:04:45.506Z,21
2023-05-15T01:07:16.570Z,24
2023-05-15T01:09:50.609Z,20
2023-05-15T01:12:21.625Z,24
2023-05-15T01:14:52.717Z,20
2023-05-15T01:17:23.873Z,25
2023-05-15T01:19:54.921Z,24
2023-05-15T01:22:26.302Z,21
2023-05-15T01:24:57.051Z,21
2023-05-15T01:27:28.785Z,24
2023-05-15T01:29:59.643Z,24
2023-05-15T01:32:31.162Z,20
2023-05-15T01:35:01.932Z,20
2023-05-15T01:37:33.270Z,24
2023-05-15T01:40:03.900Z,20
2023-05-15T01:42:35.431Z,19
2023-05-15T01:45:06.753Z,22
2023-05-15T01:47:37.708Z,24
2023-05-15T01:50:08.828Z,24
2023-05-15T01:52:40.308Z,20
2023-05-15T01:55:11.088Z,20
2023-05-15T01:57:42.219Z,20
2023-05-15T02:00:12.989Z,20
2023-05-15T02:02:44.281Z,24
2023-05-15T02:05:15.970Z,16
2023-05-15T02:07:46.884Z,24
2023-05-15T02:10:17.890Z,20
2023-05-15T02:12:48.796Z,16
2023-05-15T02:15:19.873Z,20
2023-05-15T02:17:50.682Z,19
2023-05-15T02:20:21.699Z,22
2023-05-15T02:22:52.791Z,20
2023-05-15T02:25:24.781Z,20
2023-05-15T02:27:55.172Z,21
2023-05-15T02:30:26.661Z,20
2023-05-15T02:32:57.525Z,21
2023-05-15T02:35:28.222Z,20
2023-05-15T02:38:00.664Z,20
2023-05-15T02:40:31.776Z,20
2023-05-15T02:43:02.695Z,18
2023-05-15T02:45:33.937Z,20
2023-05-15T02:48:05.051Z,16
2023-05-15T02:50:35.847Z,16
2023-05-15T02:53:07.304Z,20
2023-05-15T02:55:38.154Z,17
2023-05-15T02:58:09.201Z,20
2023-05-15T03:00:40.188Z,20
2023-05-15T03:03:11.357Z,20
2023-05-15T03:05:42.446Z,23
2023-05-15T03:08:13.389Z,17
2023-05-15T03:10:44.870Z,18
2023-05-15T03:13:16.006Z,21
2023-05-15T03:15:47.244Z,20
2023-05-15T03:18:18.881Z,16
2023-05-15T03:20:48.935Z,20
2023-05-15T03:23:19.855Z,21
2023-05-15T03:25:51.205Z,20
2023-05-15T03:28:22.135Z,23
2023-05-15T03:30:53.461Z,16
2023-05-15T03:33:24.217Z,17
2023-05-15T03:35:55.077Z,21
2023-05-15T03:38:25.988Z,16
2023-05-15T03:40:56.745Z,20
2023-05-15T03:43:27.671Z,20
2023-05-15T03:45:58.556Z,20
2023-05-15T03:48:29.604Z,20
2023-05-15T03:51:00.557Z,20
2023-05-15T03:53:31.601Z,24
2023-05-15T03:56:02.099Z,21
2023-05-15T03:58:33.054Z,20
2023-05-15T04:01:04.091Z,20
2023-05-15T04:03:35.053Z,21
2023-05-15T04:06:05.697Z,23
2023-05-15T04:08:37.558Z,20
2023-05-15T04:11:07.975Z,20
2023-05-15T04:13:39.214Z,20
2023-05-15T04:16:10.047Z,20
2023-05-15T04:18:41.271Z,25
2023-05-15T04:21:11.935Z,25
2023-05-15T04:23:42.550Z,20
2023-05-15T04:26:13.450Z,25
2023-05-15T04:28:49.472Z,23
2023-05-15T04:31:15.179Z,24
2023-05-15T04:33:45.948Z,20
2023-05-15T04:36:16.666Z,24
2023-05-15T04:38:47.686Z,28
2023-05-15T04:41:19.068Z,35
2023-05-15T04:43:49.635Z,25
2023-05-15T04:46:20.799Z,28
2023-05-15T04:48:52.177Z,28
2023-05-15T04:51:23.144Z,23
2023-05-15T04:53:53.873Z,24
2023-05-15T04:56:24.549Z,28
2023-05-15T04:58:55.250Z,20
2023-05-15T05:01:25.960Z,32
2023-05-15T05:03:56.873Z,32
2023-05-15T05:06:29.769Z,40
2023-05-15T05:08:58.669Z,20
2023-05-15T05:11:29.453Z,26
2023-05-15T05:14:00.005Z,27
2023-05-15T05:16:30.568Z,24
2023-05-15T05:19:01.347Z,28
2023-05-15T05:21:32.073Z,28
2023-05-15T05:24:03.388Z,28
2023-05-15T05:26:34.331Z,24
2023-05-15T05:29:05.431Z,36
2023-05-15T05:31:34.987Z,28
2023-05-15T05:34:05.899Z,28
2023-05-15T05:36:36.688Z,27
2023-05-15T05:39:07.200Z,32
2023-05-15T05:41:38.155Z,24
2023-05-15T05:44:09.832Z,28
2023-05-15T05:46:40.907Z,24
2023-05-15T05:49:11.648Z,24
2023-05-15T05:51:42.488Z,28
2023-05-15T05:54:13.718Z,25
2023-05-15T05:56:45.208Z,24
2023-05-15T05:59:16.410Z,27
2023-05-15T06:01:47.306Z,23
2023-05-15T06:04:19.079Z,27
2023-05-15T06:06:49.546Z,31
2023-05-15T06:09:20.570Z,28
2023-05-15T06:11:51.803Z,28
2023-05-15T06:14:22.703Z,28
2023-05-15T06:16:53.503Z,32
2023-05-15T06:19:24.205Z,32
2023-05-15T06:21:54.768Z,24
2023-05-15T06:24:25.506Z,36
2023-05-15T06:26:56.926Z,24
2023-05-15T06:29:29.572Z,27
2023-05-15T06:32:00.199Z,27
2023-05-15T06:34:30.907Z,28
2023-05-15T06:37:01.102Z,28
2023-05-15T06:39:31.699Z,25
2023-05-15T06:42:02.347Z,28
2023-05-15T06:44:33.464Z,28
2023-05-15T06:47:05.135Z,28
2023-05-15T06:49:35.899Z,24
2023-05-15T06:52:06.701Z,24
2023-05-15T06:54:37.391Z,28
2023-05-15T06:57:07.422Z,24
2023-05-15T06:59:37.867Z,25
2023-05-15T07:02:08.767Z,24
2023-05-15T07:04:39.837Z,20
2023-05-15T07:07:11.451Z,40
2023-05-15T07:09:42.737Z,40
2023-05-15T07:12:12.613Z,28
2023-05-15T07:14:43.595Z,32
2023-05-15T07:17:14.603Z,30
2023-05-15T07:19:46.285Z,24
2023-05-15T07:22:16.346Z,32
2023-05-15T07:24:46.922Z,30
2023-05-15T07:27:17.556Z,32
2023-05-15T07:29:48.765Z,24
2023-05-15T07:32:18.895Z,29
2023-05-15T07:34:49.660Z,28
2023-05-15T07:37:20.452Z,24
2023-05-15T07:39:50.975Z,24
2023-05-15T07:42:21.533Z,22
2023-05-15T07:44:52.325Z,26
2023-05-15T07:47:22.270Z,24
2023-05-15T07:49:53.152Z,24
2023-05-15T07:52:25.969Z,20
2023-05-15T07:54:59.133Z,20
2023-05-15T07:57:31.655Z,25
2023-05-15T08:00:03.462Z,28
2023-05-15T08:02:35.623Z,24
2023-05-15T08:05:06.149Z,24
2023-05-15T08:07:38.112Z,24
2023-05-15T08:10:09.097Z,28
2023-05-15T08:12:39.659Z,25
2023-05-15T08:15:16.320Z,22
2023-05-15T08:17:46.982Z,22
2023-05-15T08:20:17.768Z,25
2023-05-15T08:22:51.223Z,28
2023-05-15T08:25:21.642Z,28
2023-05-15T08:27:52.068Z,24
2023-05-15T08:30:22.726Z,28
2023-05-15T08:32:53.225Z,24
2023-05-15T08:35:27.804Z,20
2023-05-15T08:38:05.684Z,27
2023-05-15T08:40:39.396Z,28
2023-05-15T08:43:06.914Z,24
2023-05-15T08:45:37.701Z,23
2023-05-15T08:48:07.973Z,24
2023-05-15T08:50:42.100Z,26
2023-05-15T08:53:12.693Z,28
2023-05-15T08:55:43.491Z,28
2023-05-15T08:58:14.532Z,26
2023-05-15T09:00:51.108Z,24
2023-05-15T09:03:21.447Z,28
2023-05-15T09:05:54.052Z,28
2023-05-15T09:08:24.691Z,24
2023-05-15T09:10:56.047Z,24
2023-05-15T09:13:27.166Z,29
2023-05-15T09:15:57.878Z,28
2023-05-15T09:18:33.077Z,28
2023-05-15T09:21:03.987Z,26
2023-05-15T09:23:34.995Z,28
2023-05-15T09:26:06.397Z,24
2023-05-15T09:28:36.988Z,24
2023-05-15T09:31:07.427Z,28
2023-05-15T09:33:39.378Z,28
2023-05-15T09:36:10.294Z,28
2023-05-15T09:38:46.877Z,32
2023-05-15T09:41:15.667Z,30
2023-05-15T09:43:46.047Z,28
2023-05-15T09:46:16.768Z,30
2023-05-15T09:48:46.942Z,26
2023-05-15T09:51:17.150Z,28
2023-05-15T09:53:47.581Z,32
2023-05-15T09:56:22.465Z,32
2023-05-15T09:58:53.335Z,36
2023-05-15T10:01:23.728Z,32
2023-05-15T10:03:54.111Z,28
2023-05-15T10:06:24.209Z,31
2023-05-15T10:08:54.635Z,28
2023-05-15T10:11:25.225Z,28
2023-05-15T10:13:59.352Z,25
2023-05-15T10:16:30.608Z,31
2023-05-15T10:19:04.263Z,22
2023-05-15T10:21:33.384Z,28
2023-05-15T10:24:05.455Z,25
2023-05-15T10:26:39.353Z,29
2023-05-15T10:29:10.094Z,23
2023-05-15T10:31:44.448Z,21
2023-05-15T10:34:14.919Z,25
2023-05-15T10:36:44.140Z,24
2023-05-15T10:39:18.405Z,30
2023-05-15T10:41:53.864Z,26
2023-05-15T10:44:24.491Z,25
2023-05-15T10:46:58.148Z,27
2023-05-15T10:49:28.456Z,25
2023-05-15T10:52:04.484Z,40
2023-05-15T10:54:34.873Z,31
2023-05-15T10:57:07.359Z,25
2023-05-15T10:59:37.867Z,24
2023-05-15T11:02:17.451Z,24
2023-05-15T11:04:47.905Z,22
2023-05-15T11:07:18.586Z,24
2023-05-15T11:09:49.293Z,28
2023-05-15T11:12:20.570Z,28
2023-05-15T11:14:51.402Z,24
2023-05-15T11:17:26.536Z,24
2023-05-15T11:19:56.480Z,24
2023-05-15T11:22:26.921Z,23
2023-05-15T11:24:57.126Z,27
2023-05-15T11:27:30.019Z,24
2023-05-15T11:30:00.433Z,28
2023-05-15T11:32:32.720Z,22
2023-05-15T11:35:06.239Z,28
2023-05-15T11:37:37.969Z,28
2023-05-15T11:40:10.969Z,24
2023-05-15T11:42:41.731Z,21
2023-05-15T11:45:11.668Z,24
2023-05-15T11:47:42.251Z,22
2023-05-15T11:50:14.180Z,24
2023-05-15T11:52:45.409Z,22
2023-05-15T11:55:15.683Z,20
2023-05-15T11:57:46.222Z,24
2023-05-15T12:00:16.676Z,24
2023-05-15T12:02:52.137Z,20
2023-05-15T12:05:22.541Z,16
2023-05-15T12:07:53.122Z,23
2023-05-15T12:10:24.134Z,24
2023-05-15T12:13:01.530Z,20
2023-05-15T12:15:30.705Z,21
2023-05-15T12:18:03.069Z,24
2023-05-15T12:20:34.101Z,22
2023-05-15T12:23:04.823Z,20
2023-05-15T12:25:37.412Z,24
2023-05-15T12:28:07.669Z,20
2023-05-15T12:30:39.125Z,18
2023-05-15T12:33:10.739Z,20
2023-05-15T12:35:43.908Z,18
2023-05-15T12:38:14.280Z,16
2023-05-15T12:40:44.978Z,20
2023-05-15T12:43:16.716Z,16
2023-05-15T12:45:47.857Z,20
2023-05-15T12:48:19.407Z,20
2023-05-15T12:50:54.520Z,24
2023-05-15T12:53:25.050Z,24
2023-05-15T12:55:55.937Z,16
2023-05-15T12:58:28.978Z,20
2023-05-15T13:00:59.716Z,18
2023-05-15T13:03:32.480Z,20
2023-05-15T13:06:05.072Z,20
2023-05-15T13:08:35.693Z,21
2023-05-15T13:11:09.819Z,19
2023-05-15T13:13:40.304Z,16
2023-05-15T13:16:12.770Z,17
2023-05-15T13:18:45.884Z,20
2023-05-15T13:21:16.301Z,13
2023-05-15T13:23:49.991Z,20
2023-05-15T13:26:20.681Z,16
2023-05-15T13:28:52.166Z,20
2023-05-15T13:31:27.554Z,22
2023-05-15T13:34:01.611Z,16
2023-05-15T13:36:38.794Z,18
2023-05-15T13:39:11.193Z,16
2023-05-15T13:41:43.543Z,16
2023-05-15T13:44:17.551Z,20
2023-05-15T13:46:49.629Z,19
2023-05-15T13:49:20.440Z,16
2023-05-15T13:51:52.524Z,20
2023-05-15T13:54:25.025Z,29
2023-05-15T13:57:00.714Z,24
2023-05-15T13:59:35.373Z,26
2023-05-15T14:02:09.758Z,22
2023-05-15T14:04:44.800Z,48
2023-05-15T14:07:18.229Z,32
2023-05-15T14:09:50.834Z,20
2023-05-15T14:15:23.606Z,16
2023-05-15T14:17:58.895Z,20
2023-05-15T14:20:32.140Z,16
2023-05-15T14:23:09.117Z,16
2023-05-15T14:25:42.337Z,14
2023-05-15T14:28:19.128Z,20
2023-05-15T14:30:54.500Z,16
2023-05-15T14:33:28.126Z,16
2023-05-15T14:36:01.644Z,22
2023-05-15T14:38:34.482Z,18
2023-05-15T14:41:09.876Z,16
2023-05-15T14:43:43.440Z,20
2023-05-15T14:46:16.457Z,20
2023-05-15T14:48:50.556Z,28
2023-05-15T14:51:21.899Z,19
2023-05-15T14:53:57.448Z,20
2023-05-15T14:56:29.651Z,20
2023-05-15T14:59:03.118Z,20
2023-05-15T15:01:36.506Z,20
2023-05-15T15:04:08.864Z,28
2023-05-15T15:06:40.482Z,32
2023-05-15T15:09:13.029Z,28
2023-05-15T15:11:45.001Z,28
2023-05-15T15:14:19.486Z,24
2023-05-15T15:16:52.588Z,32
2023-05-15T15:19:28.899Z,26
2023-05-15T15:22:00.603Z,26
2023-05-15T15:24:35.955Z,28
2023-05-15T15:27:12.828Z,22
2023-05-15T15:29:47.546Z,28
2023-05-15T15:32:22.643Z,28
2023-05-15T15:34:55.546Z,36
2023-05-15T15:37:31.822Z,44
2023-05-15T15:40:10.555Z,40
2023-05-15T15:45:48.410Z,28
2023-05-15T15:48:21.467Z,28
2023-05-15T15:50:53.432Z,28
2023-05-15T15:53:23.446Z,28
2023-05-15T15:55:55.520Z,32
2023-05-15T15:58:29.532Z,27
2023-05-15T16:01:03.678Z,28
2023-05-15T16:03:35.781Z,27
2023-05-15T16:06:07.665Z,28
2023-05-15T16:08:39.730Z,28
2023-05-15T16:11:12.306Z,33
2023-05-15T16:13:45.702Z,32
2023-05-15T16:16:17.812Z,36
2023-05-15T16:18:49.752Z,36
2023-05-15T16:21:21.695Z,36
2023-05-15T16:23:54.068Z,36
2023-05-15T16:26:25.936Z,40
2023-05-15T16:28:58.913Z,38
2023-05-15T16:31:33.087Z,39
2023-05-15T16:34:06.320Z,41
2023-05-15T16:36:39.405Z,44
2023-05-15T16:39:11.379Z,40
2023-05-15T16:41:43.946Z,39
2023-05-15T16:44:16.424Z,40
2023-05-15T16:46:52.002Z,40
2023-05-15T16:49:23.319Z,40
2023-05-15T16:51:56.004Z,33
2023-05-15T16:54:27.961Z,37
2023-05-15T16:57:01.254Z,36
2023-05-15T16:59:30.823Z,44
2023-05-15T17:02:00.851Z,44
2023-05-15T17:04:35.784Z,40
2023-05-15T17:07:09.269Z,40
2023-05-15T17:09:40.622Z,44
2023-05-15T17:12:11.371Z,39
2023-05-15T17:14:42.125Z,40
2023-05-15T17:17:13.634Z,40
2023-05-15T17:19:45.887Z,40
2023-05-15T17:22:16.182Z,40
2023-05-15T17:24:51.127Z,39
2023-05-15T17:27:18.732Z,37
2023-05-15T17:29:49.179Z,36
2023-05-15T17:32:20.777Z,36
2023-05-15T17:34:51.346Z,36
2023-05-15T17:37:22.241Z,37
2023-05-15T17:39:55.378Z,40
2023-05-15T17:42:27.598Z,36
2023-05-15T17:47:48.669Z,42
2023-05-15T17:50:18.745Z,36
2023-05-15T17:52:57.164Z,40
2023-05-15T17:55:41.030Z,36
2023-05-15T17:58:17.774Z,39
2023-05-15T18:00:49.999Z,36
2023-05-15T18:03:24.557Z,40
2023-05-15T18:05:57.895Z,37
2023-05-15T18:08:27.494Z,37
2023-05-15T18:11:14.195Z,36
2023-05-15T18:13:37.989Z,42
2023-05-15T18:16:08.730Z,36
2023-05-15T18:18:40.223Z,40
2023-05-15T18:21:10.314Z,41
2023-05-15T18:23:45.926Z,44
2023-05-15T18:26:15.558Z,43
2023-05-15T18:28:46.865Z,40
2023-05-15T18:31:21.044Z,36
2023-05-15T18:33:52.187Z,36
2023-05-15T18:36:22.250Z,36
2023-05-15T18:38:53.519Z,50
2023-05-15T18:41:26.991Z,40
2023-05-15T18:43:58.197Z,45
2023-05-15T18:46:29.344Z,46
2023-05-15T18:48:59.314Z,40
2023-05-15T18:51:37.458Z,36
2023-05-15T18:54:07.575Z,40
2023-05-15T18:56:37.843Z,40
2023-05-15T18:59:10.952Z,36
2023-05-15T19:01:41.165Z,36
2023-05-15T19:04:11.810Z,32
2023-05-15T19:06:43.440Z,36
2023-05-15T19:09:16.856Z,34
2023-05-15T19:11:46.701Z,32
2023-05-15T19:14:16.917Z,36
2023-05-15T19:16:47.038Z,39
2023-05-15T19:19:18.477Z,32
2023-05-15T19:21:49.116Z,36
2023-05-15T19:24:19.185Z,40
2023-05-15T19:26:50.429Z,34
2023-05-15T19:29:21.224Z,38
2023-05-15T19:31:51.504Z,36
2023-05-15T19:34:24.170Z,36
2023-05-15T19:36:54.455Z,40
2023-05-15T19:39:25.185Z,37
2023-05-15T19:41:55.472Z,36
2023-05-15T19:44:25.810Z,36
2023-05-15T19:46:57.104Z,34
2023-05-15T19:49:27.824Z,36
2023-05-15T19:51:59.141Z,40
2023-05-15T19:54:29.600Z,35
2023-05-15T19:57:01.168Z,40
2023-05-15T19:59:31.719Z,32
2023-05-15T20:02:02.568Z,33
2023-05-15T20:04:32.862Z,36
2023-05-15T20:07:04.504Z,33
2023-05-15T20:09:34.509Z,36
2023-05-15T20:12:05.417Z,35
2023-05-15T20:14:36.005Z,36
2023-05-15T20:17:06.699Z,35
2023-05-15T20:19:38.088Z,37
2023-05-15T20:22:08.200Z,40
2023-05-15T20:24:38.741Z,35
2023-05-15T20:27:08.827Z,35
2023-05-15T20:32:16.215Z,36
2023-05-15T20:34:46.446Z,38
2023-05-15T20:37:16.798Z,36
2023-05-15T20:39:47.229Z,35
2023-05-15T20:42:17.808Z,34
2023-05-15T20:44:48.931Z,32
2023-05-15T20:47:19.568Z,28
2023-05-15T20:49:49.873Z,32
2023-05-15T20:52:19.975Z,28
2023-05-15T20:54:50.895Z,32
2023-05-15T20:57:21.175Z,29
2023-05-15T20:59:51.664Z,31
2023-05-15T21:02:21.932Z,32
2023-05-15T21:04:53.479Z,32
2023-05-15T21:07:23.847Z,32
2023-05-15T21:09:54.099Z,32
2023-05-15T21:12:24.489Z,32
2023-05-15T21:14:54.948Z,32
2023-05-15T21:17:25.793Z,36
2023-05-15T21:19:56.645Z,36
2023-05-15T21:22:31.521Z,28
2023-05-15T21:25:01.859Z,32
2023-05-15T21:27:32.534Z,32
2023-05-15T21:30:03.122Z,31
2023-05-15T21:32:33.772Z,32
2023-05-15T21:35:04.288Z,32
2023-05-15T21:37:35.660Z,32
2023-05-15T21:40:06.699Z,32
2023-05-15T21:42:36.943Z,36
2023-05-15T21:45:12.293Z,33
2023-05-15T21:47:43.145Z,32
2023-05-15T21:50:13.509Z,28
2023-05-15T21:52:43.948Z,36
2023-05-15T21:55:14.543Z,27
2023-05-15T21:57:45.348Z,32
2023-05-15T22:00:15.945Z,32
2023-05-15T22:02:48.153Z,31
2023-05-15T22:05:18.679Z,32
2023-05-15T22:07:49.068Z,32
2023-05-15T22:10:20.298Z,32
2023-05-15T22:12:50.692Z,28
2023-05-15T22:15:22.221Z,28
2023-05-15T22:17:54.208Z,32
2023-05-15T22:20:25.021Z,32
2023-05-15T22:22:56.338Z,31
2023-05-15T22:25:26.844Z,32
2023-05-15T22:28:06.407Z,31
2023-05-15T22:30:36.360Z,28
2023-05-15T22:33:09.753Z,32
2023-05-15T22:35:39.292Z,28
2023-05-15T22:38:09.511Z,32
2023-05-15T22:40:40.430Z,28
2023-05-15T22:43:10.733Z,27
2023-05-15T22:45:45.602Z,28
2023-05-15T22:48:16.627Z,32
2023-05-15T22:50:58.752Z,24
2023-05-15T22:53:33.644Z,28
2023-05-15T22:56:13.152Z,28
2023-05-15T22:58:43.862Z,32
2023-05-15T23:03:45.686Z,30
2023-05-15T23:06:15.045Z,32
2023-05-15T23:08:46.083Z,30
2023-05-15T23:11:16.862Z,32
2023-05-15T23:13:47.861Z,28
2023-05-15T23:16:26.666Z,26
2023-05-15T23:18:57.900Z,27
2023-05-15T23:21:28.506Z,28
2023-05-15T23:23:59.161Z,29
2023-05-15T23:26:30.510Z,28
2023-05-15T23:29:01.085Z,27
2023-05-15T23:31:31.949Z,32
2023-05-15T23:34:02.503Z,26
2023-05-15T23:36:33.577Z,24
2023-05-15T23:39:04.133Z,28
2023-05-15T23:41:34.505Z,32
2023-05-15T23:44:05.577Z,32
2023-05-15T23:46:36.630Z,32
2023-05-15T23:49:08.176Z,28
2023-05-15T23:51:39.313Z,29
2023-05-15T23:54:10.026Z,28
2023-05-15T23:56:40.943Z,28
2023-05-15T23:59:12.069Z,30
